createdAt,value
2024-04-18T00:01:36.251Z,96331.00
2024-04-18T00:04:03.332Z,96331.00
2024-04-18T00:06:30.995Z,96335.00
2024-04-18T00:08:58.221Z,96333.00
2024-04-18T00:11:25.302Z,96337.00
2024-04-18T00:13:52.340Z,96333.00
2024-04-18T00:16:19.265Z,96332.00
2024-04-18T00:18:46.287Z,96331.00
2024-04-18T00:21:13.302Z,96334.00
2024-04-18T00:23:40.232Z,96336.00
2024-04-18T00:26:08.570Z,96334.00
2024-04-18T00:28:35.516Z,96337.00
2024-04-18T00:31:02.496Z,96329.00
2024-04-18T00:33:29.639Z,96330.00
2024-04-18T00:35:56.573Z,96323.00
2024-04-18T00:38:23.809Z,96337.00
2024-04-18T00:40:50.775Z,96337.00
2024-04-18T00:43:20.258Z,96337.00
2024-04-18T00:45:47.773Z,96337.00
2024-04-18T00:48:15.065Z,96340.00
2024-04-18T00:50:42.616Z,96339.00
2024-04-18T00:53:10.489Z,96335.00
2024-04-18T00:55:39.439Z,96338.00
2024-04-18T00:58:06.394Z,96335.00
2024-04-18T01:00:33.371Z,96337.00
2024-04-18T01:03:00.423Z,96339.00
2024-04-18T01:05:27.676Z,96340.00
2024-04-18T01:07:54.614Z,96339.00
2024-04-18T01:10:21.700Z,96340.00
2024-04-18T01:12:59.031Z,96346.00
2024-04-18T01:15:27.513Z,96348.00
2024-04-18T01:17:55.395Z,96339.00
2024-04-18T01:20:24.389Z,96344.00
2024-04-18T01:22:51.859Z,96348.00
2024-04-18T01:25:19.019Z,96348.00
2024-04-18T01:27:46.025Z,96344.00
2024-04-18T01:30:13.032Z,96337.00
2024-04-18T01:32:40.042Z,96351.00
2024-04-18T01:35:08.867Z,96347.00
2024-04-18T01:37:35.815Z,96345.00
2024-04-18T01:40:02.846Z,96343.00
2024-04-18T01:42:29.812Z,96340.00
2024-04-18T01:44:56.745Z,96349.00
2024-04-18T01:47:23.807Z,96348.00
2024-04-18T01:49:50.891Z,96351.00
2024-04-18T01:52:17.891Z,96346.00
2024-04-18T01:54:44.935Z,96343.00
2024-04-18T01:57:11.941Z,96343.00
2024-04-18T01:59:38.884Z,96348.00
2024-04-18T02:02:05.795Z,96354.00
2024-04-18T02:04:32.862Z,96340.00
2024-04-18T02:07:00.088Z,96352.00
2024-04-18T02:09:27.323Z,96346.00
2024-04-18T02:11:54.244Z,96349.00
2024-04-18T02:14:21.317Z,96346.00
2024-04-18T02:16:48.300Z,96357.00
2024-04-18T02:19:15.258Z,96357.00
2024-04-18T02:21:42.212Z,96351.00
2024-04-18T02:24:09.227Z,96347.00
2024-04-18T02:26:36.812Z,96349.00
2024-04-18T02:29:04.375Z,96357.00
2024-04-18T02:31:31.328Z,96359.00
2024-04-18T02:33:58.304Z,96358.00
2024-04-18T02:36:25.620Z,96355.00
2024-04-18T02:38:53.354Z,96355.00
2024-04-18T02:41:20.479Z,96358.00
2024-04-18T02:43:49.555Z,96361.00
2024-04-18T02:46:16.464Z,96357.00
2024-04-18T02:48:43.378Z,96360.00
2024-04-18T02:51:10.486Z,96364.00
2024-04-18T02:53:37.399Z,96355.00
2024-04-18T02:56:04.732Z,96353.00
2024-04-18T02:58:31.964Z,96350.00
2024-04-18T03:01:06.098Z,96355.00
2024-04-18T03:03:33.169Z,96347.00
2024-04-18T03:06:04.430Z,96356.00
2024-04-18T03:08:32.135Z,96360.00
2024-04-18T03:10:59.055Z,96357.00
2024-04-18T03:13:26.135Z,96353.00
2024-04-18T03:15:53.114Z,96355.00
2024-04-18T03:18:20.163Z,96356.00
2024-04-18T03:20:54.352Z,96353.00
2024-04-18T03:23:21.395Z,96360.00
2024-04-18T03:25:49.046Z,96366.00
2024-04-18T03:28:16.213Z,96361.00
2024-04-18T03:30:43.376Z,96368.00
2024-04-18T03:33:10.532Z,96375.00
2024-04-18T03:35:41.358Z,96371.00
2024-04-18T03:38:08.414Z,96377.00
2024-04-18T03:40:36.189Z,96374.00
2024-04-18T03:43:03.813Z,96368.00
2024-04-18T03:45:30.993Z,96369.00
2024-04-18T03:47:58.204Z,96368.00
2024-04-18T03:50:25.238Z,96371.00
2024-04-18T03:52:52.148Z,96375.00
2024-04-18T03:55:19.274Z,96380.00
2024-04-18T03:57:46.428Z,96375.00
2024-04-18T04:00:14.061Z,96383.00
2024-04-18T04:02:41.158Z,96386.00
2024-04-18T04:05:08.111Z,96385.00
2024-04-18T04:07:35.036Z,96391.00
2024-04-18T04:10:02.019Z,96393.00
2024-04-18T04:12:29.051Z,96392.00
2024-04-18T04:14:56.019Z,96393.00
2024-04-18T04:17:23.739Z,96393.00
2024-04-18T04:19:50.851Z,96395.00
2024-04-18T04:22:18.110Z,96396.00
2024-04-18T04:24:45.111Z,96397.00
2024-04-18T04:27:12.057Z,96410.00
2024-04-18T04:29:38.996Z,96412.00
2024-04-18T04:32:05.991Z,96412.00
2024-04-18T04:34:32.979Z,96408.00
2024-04-18T04:36:59.912Z,96422.00
2024-04-18T04:39:27.320Z,96421.00
2024-04-18T04:41:54.310Z,96424.00
2024-04-18T04:44:21.318Z,96429.00
2024-04-18T04:46:48.570Z,96425.00
2024-04-18T04:49:16.068Z,96431.00
2024-04-18T04:51:43.036Z,96430.00
2024-04-18T04:54:10.897Z,96427.00
2024-04-18T04:56:37.830Z,96437.00
2024-04-18T04:59:05.193Z,96448.00
2024-04-18T05:01:32.180Z,96440.00
2024-04-18T05:03:59.278Z,96444.00
2024-04-18T05:06:27.058Z,96445.00
2024-04-18T05:08:54.010Z,96451.00
2024-04-18T05:11:21.031Z,96450.00
2024-04-18T05:13:48.017Z,96449.00
2024-04-18T05:16:15.021Z,96459.00
2024-04-18T05:18:42.510Z,96460.00
2024-04-18T05:21:09.455Z,96454.00
2024-04-18T05:23:36.354Z,96457.00
2024-04-18T05:26:03.286Z,96467.00
2024-04-18T05:28:42.327Z,96463.00
2024-04-18T05:31:09.723Z,96470.00
2024-04-18T05:33:36.901Z,96474.00
2024-04-18T05:36:06.474Z,96476.00
2024-04-18T05:38:33.458Z,96470.00
2024-04-18T05:41:00.408Z,96483.00
2024-04-18T05:43:28.109Z,96479.00
2024-04-18T05:45:55.668Z,96494.00
2024-04-18T05:48:22.696Z,96497.00
2024-04-18T05:50:49.904Z,96499.00
2024-04-18T05:53:16.841Z,96494.00
2024-04-18T05:55:43.812Z,96499.00
2024-04-18T05:58:10.799Z,96503.00
2024-04-18T06:00:37.779Z,96496.00
2024-04-18T06:03:05.904Z,96510.00
2024-04-18T06:05:32.955Z,96511.00
2024-04-18T06:07:59.910Z,96511.00
2024-04-18T06:10:26.968Z,96523.00
2024-04-18T06:12:54.045Z,96520.00
2024-04-18T06:15:21.136Z,96522.00
2024-04-18T06:17:48.108Z,96521.00
2024-04-18T06:20:15.165Z,96529.00
2024-04-18T06:22:42.103Z,96532.00
2024-04-18T06:25:09.311Z,96534.00
2024-04-18T06:27:36.292Z,96535.00
2024-04-18T06:30:03.436Z,96528.00
2024-04-18T06:32:30.502Z,96539.00
2024-04-18T06:34:57.468Z,96543.00
2024-04-18T06:37:24.385Z,96547.00
2024-04-18T06:39:51.503Z,96542.00
2024-04-18T06:42:18.767Z,96549.00
2024-04-18T06:44:45.709Z,96552.00
2024-04-18T06:47:12.677Z,96552.00
2024-04-18T06:49:39.698Z,96559.00
2024-04-18T06:52:06.810Z,96560.00
2024-04-18T06:54:34.510Z,96563.00
2024-04-18T06:57:01.879Z,96564.00
2024-04-18T06:59:29.129Z,96566.00
2024-04-18T07:01:56.085Z,96576.00
2024-04-18T07:04:23.183Z,96574.00
2024-04-18T07:06:50.333Z,96582.00
2024-04-18T07:09:17.315Z,96581.00
2024-04-18T07:11:44.486Z,96584.00
2024-04-18T07:14:11.524Z,96580.00
2024-04-18T07:16:38.465Z,96587.00
2024-04-18T07:19:05.483Z,96590.00
2024-04-18T07:21:32.433Z,96591.00
2024-04-18T07:24:01.771Z,96599.00
2024-04-18T07:26:29.018Z,96604.00
2024-04-18T07:28:56.522Z,96603.00
2024-04-18T07:31:23.515Z,96598.00
2024-04-18T07:33:50.572Z,96605.00
2024-04-18T07:36:22.542Z,96599.00
2024-04-18T07:38:50.485Z,96605.00
2024-04-18T07:41:18.368Z,96604.00
2024-04-18T07:43:45.323Z,96607.00
2024-04-18T07:46:14.220Z,96610.00
2024-04-18T07:48:41.795Z,96605.00
2024-04-18T07:51:08.916Z,96607.00
2024-04-18T07:53:36.022Z,96617.00
2024-04-18T07:56:05.716Z,96622.00
2024-04-18T07:58:33.389Z,96621.00
2024-04-18T08:01:02.190Z,96620.00
2024-04-18T08:03:31.646Z,96630.00
2024-04-18T08:06:02.207Z,96645.00
2024-04-18T08:08:35.173Z,96637.00
2024-04-18T08:11:25.963Z,96638.00
2024-04-18T08:13:55.303Z,96632.00
2024-04-18T08:16:24.973Z,96640.00
2024-04-18T08:18:52.130Z,96645.00
2024-04-18T08:21:19.187Z,96641.00
2024-04-18T08:23:52.671Z,96638.00
2024-04-18T08:26:19.730Z,96646.00
2024-04-18T08:28:46.656Z,96650.00
2024-04-18T08:31:13.646Z,96663.00
2024-04-18T08:33:46.729Z,96660.00
2024-04-18T08:36:17.931Z,96659.00
2024-04-18T08:38:44.896Z,96662.00
2024-04-18T08:41:14.272Z,96665.00
2024-04-18T08:43:43.573Z,96662.00
2024-04-18T08:46:11.948Z,96665.00
2024-04-18T08:48:39.824Z,96670.00
2024-04-18T08:51:08.926Z,96673.00
2024-04-18T08:53:35.966Z,96682.00
2024-04-18T08:56:07.296Z,96674.00
2024-04-18T08:58:34.663Z,96684.00
2024-04-18T09:01:01.994Z,96687.00
2024-04-18T09:03:32.469Z,96686.00
2024-04-18T09:05:59.618Z,96685.00
2024-04-18T09:08:26.699Z,96688.00
2024-04-18T09:10:53.819Z,96685.00
2024-04-18T09:13:21.845Z,96690.00
2024-04-18T09:15:49.473Z,96700.00
2024-04-18T09:18:16.627Z,96694.00
2024-04-18T09:20:44.722Z,96686.00
2024-04-18T09:23:11.665Z,96699.00
2024-04-18T09:25:40.473Z,96701.00
2024-04-18T09:28:08.953Z,96701.00
2024-04-18T09:30:39.374Z,96699.00
2024-04-18T09:33:07.719Z,96700.00
2024-04-18T09:35:36.731Z,96706.00
2024-04-18T09:38:10.145Z,96695.00
2024-04-18T09:40:42.379Z,96695.00
2024-04-18T09:43:27.909Z,96689.00
2024-04-18T09:46:10.762Z,96688.00
2024-04-18T09:48:38.472Z,96694.00
2024-04-18T09:51:07.824Z,96694.00
2024-04-18T09:53:36.469Z,96697.00
2024-04-18T09:56:04.815Z,96701.00
2024-04-18T09:58:33.287Z,96703.00
2024-04-18T10:01:00.418Z,96704.00
2024-04-18T10:03:29.384Z,96705.00
2024-04-18T10:06:02.127Z,96713.00
2024-04-18T10:08:34.739Z,96705.00
2024-04-18T10:11:02.220Z,96713.00
2024-04-18T10:13:29.835Z,96714.00
2024-04-18T10:16:14.038Z,96715.00
2024-04-18T10:18:42.968Z,96720.00
2024-04-18T10:21:28.598Z,96721.00
2024-04-18T10:24:06.440Z,96728.00
2024-04-18T10:26:36.635Z,96715.00
2024-04-18T10:29:03.678Z,96730.00
2024-04-18T10:31:31.072Z,96731.00
2024-04-18T10:33:58.851Z,96743.00
2024-04-18T10:36:27.377Z,96748.00
2024-04-18T10:38:54.754Z,96767.00
2024-04-18T10:41:26.206Z,96763.00
2024-04-18T10:43:55.305Z,96766.00
2024-04-18T10:46:23.428Z,96770.00
2024-04-18T10:48:55.315Z,96769.00
2024-04-18T10:51:22.574Z,96770.00
2024-04-18T10:53:49.635Z,96770.00
2024-04-18T10:56:16.742Z,96777.00
2024-04-18T10:58:43.766Z,96775.00
2024-04-18T11:01:10.818Z,96762.00
2024-04-18T11:03:37.985Z,96770.00
2024-04-18T11:06:05.233Z,96775.00
2024-04-18T11:08:35.066Z,96773.00
2024-04-18T11:11:04.477Z,96781.00
2024-04-18T11:13:31.792Z,96780.00
2024-04-18T11:15:58.771Z,96778.00
2024-04-18T11:18:26.316Z,96783.00
2024-04-18T11:20:54.130Z,96781.00
2024-04-18T11:23:35.278Z,96778.00
2024-04-18T11:26:14.073Z,96781.00
2024-04-18T11:28:41.703Z,96785.00
2024-04-18T11:31:08.720Z,96784.00
2024-04-18T11:33:36.396Z,96792.00
2024-04-18T11:36:03.803Z,96790.00
2024-04-18T11:38:32.775Z,96793.00
2024-04-18T11:41:01.481Z,96796.00
2024-04-18T11:43:28.542Z,96799.00
2024-04-18T11:45:55.965Z,96801.00
2024-04-18T11:48:23.103Z,96794.00
2024-04-18T11:50:50.315Z,96797.00
2024-04-18T11:53:17.341Z,96809.00
2024-04-18T11:55:44.332Z,96802.00
2024-04-18T11:58:11.588Z,96801.00
2024-04-18T12:00:38.624Z,96808.00
2024-04-18T12:03:07.135Z,96807.00
2024-04-18T12:05:34.142Z,96816.00
2024-04-18T12:08:01.176Z,96819.00
2024-04-18T12:10:28.086Z,96826.00
2024-04-18T12:12:55.406Z,96840.00
2024-04-18T12:15:22.374Z,96831.00
2024-04-18T12:17:49.438Z,96846.00
2024-04-18T12:20:20.520Z,96843.00
2024-04-18T12:22:47.752Z,96843.00
2024-04-18T12:25:16.719Z,96842.00
2024-04-18T12:27:44.175Z,96844.00
2024-04-18T12:30:11.533Z,96844.00
2024-04-18T12:32:38.521Z,96849.00
2024-04-18T12:35:06.118Z,96850.00
2024-04-18T12:37:33.078Z,96848.00
2024-04-18T12:40:01.532Z,96851.00
2024-04-18T12:42:28.517Z,96848.00
2024-04-18T12:44:55.520Z,96848.00
2024-04-18T12:47:22.567Z,96848.00
2024-04-18T12:49:49.862Z,96836.00
2024-04-18T12:52:17.395Z,96838.00
2024-04-18T12:54:45.524Z,96832.00
2024-04-18T12:57:12.781Z,96822.00
2024-04-18T12:59:39.721Z,96816.00
2024-04-18T13:02:06.663Z,96809.00
2024-04-18T13:04:38.823Z,96813.00
2024-04-18T13:07:07.027Z,96801.00
2024-04-18T13:09:34.453Z,96804.00
2024-04-18T13:12:05.222Z,96806.00
2024-04-18T13:14:32.315Z,96807.00
2024-04-18T13:16:59.402Z,96800.00
2024-04-18T13:19:26.589Z,96807.00
2024-04-18T13:21:55.498Z,96799.00
2024-04-18T13:24:24.063Z,96803.00
2024-04-18T13:26:52.231Z,96801.00
2024-04-18T13:29:26.626Z,96799.00
2024-04-18T13:31:53.878Z,96801.00
2024-04-18T13:34:21.826Z,96807.00
2024-04-18T13:36:49.402Z,96800.00
2024-04-18T13:39:16.759Z,96803.00
2024-04-18T13:41:47.335Z,96803.00
2024-04-18T13:44:14.337Z,96815.00
2024-04-18T13:46:42.085Z,96799.00
2024-04-18T13:49:09.146Z,96781.00
2024-04-18T13:51:36.196Z,96794.00
2024-04-18T13:54:04.382Z,96798.00
2024-04-18T13:56:31.868Z,96809.00
2024-04-18T13:58:59.050Z,96807.00
2024-04-18T14:01:26.472Z,96804.00
2024-04-18T14:03:54.129Z,96808.00
2024-04-18T14:06:21.778Z,96802.00
2024-04-18T14:08:49.011Z,96801.00
2024-04-18T14:11:16.251Z,96802.00
2024-04-18T14:13:43.382Z,96803.00
2024-04-18T14:16:29.574Z,96814.00
2024-04-18T14:18:58.788Z,96807.00
2024-04-18T14:21:26.056Z,96820.00
2024-04-18T14:23:53.512Z,96824.00
2024-04-18T14:26:20.910Z,96816.00
2024-04-18T14:28:48.131Z,96818.00
2024-04-18T14:31:15.437Z,96812.00
2024-04-18T14:33:42.776Z,96813.00
2024-04-18T14:36:10.068Z,96817.00
2024-04-18T14:38:38.622Z,96817.00
2024-04-18T14:41:11.752Z,96810.00
2024-04-18T14:43:40.921Z,96823.00
2024-04-18T14:46:08.128Z,96812.00
2024-04-18T14:48:37.457Z,96816.00
2024-04-18T14:51:05.138Z,96815.00
2024-04-18T14:53:32.200Z,96802.00
2024-04-18T14:55:59.916Z,96799.00
2024-04-18T14:58:27.891Z,96799.00
2024-04-18T15:00:55.799Z,96806.00
2024-04-18T15:03:23.911Z,96811.00
2024-04-18T15:05:57.295Z,96816.00
2024-04-18T15:08:25.296Z,96817.00
2024-04-18T15:10:53.317Z,96820.00
2024-04-18T15:13:20.641Z,96832.00
2024-04-18T15:15:48.119Z,96832.00
2024-04-18T15:18:15.760Z,96846.00
2024-04-18T15:20:43.052Z,96849.00
2024-04-18T15:23:11.619Z,96837.00
2024-04-18T15:25:38.862Z,96838.00
2024-04-18T15:28:06.771Z,96833.00
2024-04-18T15:30:34.273Z,96838.00
2024-04-18T15:33:01.702Z,96842.00
2024-04-18T15:35:30.171Z,96839.00
2024-04-18T15:37:57.629Z,96836.00
2024-04-18T15:40:24.905Z,96840.00
2024-04-18T15:42:51.976Z,96834.00
2024-04-18T15:45:19.391Z,96840.00
2024-04-18T15:47:46.665Z,96844.00
2024-04-18T15:50:14.023Z,96842.00
2024-04-18T15:52:41.420Z,96843.00
2024-04-18T15:55:15.929Z,96842.00
2024-04-18T15:57:48.979Z,96842.00
2024-04-18T16:00:16.420Z,96845.00
2024-04-18T16:02:44.920Z,96851.00
2024-04-18T16:05:13.922Z,96846.00
2024-04-18T16:07:42.951Z,96844.00
2024-04-18T16:10:10.303Z,96848.00
2024-04-18T16:12:37.718Z,96850.00
2024-04-18T16:15:06.713Z,96854.00
2024-04-18T16:17:34.933Z,96852.00
2024-04-18T16:20:02.394Z,96848.00
2024-04-18T16:22:29.794Z,96851.00
2024-04-18T16:24:56.910Z,96854.00
2024-04-18T16:27:24.128Z,96853.00
2024-04-18T16:29:51.372Z,96859.00
2024-04-18T16:32:18.514Z,96848.00
2024-04-18T16:34:45.577Z,96862.00
2024-04-18T16:37:15.209Z,96857.00
2024-04-18T16:39:44.618Z,96853.00
2024-04-18T16:42:11.864Z,96857.00
2024-04-18T16:44:39.214Z,96863.00
2024-04-18T16:47:06.897Z,96869.00
2024-04-18T16:49:34.215Z,96865.00
2024-04-18T16:52:01.546Z,96870.00
2024-04-18T16:54:29.488Z,96864.00
2024-04-18T16:56:57.243Z,96871.00
2024-04-18T16:59:24.797Z,96866.00
2024-04-18T17:01:51.832Z,96878.00
2024-04-18T17:04:19.031Z,96879.00
2024-04-18T17:06:48.655Z,96879.00
2024-04-18T17:09:18.258Z,96883.00
2024-04-18T17:11:45.813Z,96882.00
2024-04-18T17:14:14.862Z,96892.00
2024-04-18T17:16:43.091Z,96885.00
2024-04-18T17:19:10.471Z,96892.00
2024-04-18T17:21:40.047Z,96890.00
2024-04-18T17:24:07.444Z,96889.00
2024-04-18T17:26:34.966Z,96895.00
2024-04-18T17:29:02.411Z,96898.00
2024-04-18T17:31:29.786Z,96901.00
2024-04-18T17:33:56.950Z,96902.00
2024-04-18T17:36:24.141Z,96905.00
2024-04-18T17:38:51.552Z,96912.00
2024-04-18T17:41:18.842Z,96917.00
2024-04-18T17:43:48.105Z,96925.00
2024-04-18T17:46:15.675Z,96933.00
2024-04-18T17:48:44.331Z,96934.00
2024-04-18T17:51:11.924Z,96936.00
2024-04-18T17:53:39.299Z,96945.00
2024-04-18T17:56:06.967Z,96942.00
2024-04-18T17:58:33.986Z,96942.00
2024-04-18T18:01:01.310Z,96936.00
2024-04-18T18:03:28.942Z,96937.00
2024-04-18T18:05:56.165Z,96946.00
2024-04-18T18:08:23.409Z,96941.00
2024-04-18T18:10:50.563Z,96950.00
2024-04-18T18:13:17.774Z,96958.00
2024-04-18T18:15:45.620Z,96966.00
2024-04-18T18:18:14.377Z,96969.00
2024-04-18T18:20:41.571Z,96966.00
2024-04-18T18:23:08.687Z,96973.00
2024-04-18T18:25:35.843Z,96974.00
2024-04-18T18:28:03.422Z,96982.00
2024-04-18T18:30:30.623Z,96979.00
2024-04-18T18:32:57.811Z,96983.00
2024-04-18T18:35:24.761Z,96987.00
2024-04-18T18:37:53.289Z,96996.00
2024-04-18T18:40:20.567Z,96991.00
2024-04-18T18:42:47.592Z,97002.00
2024-04-18T18:45:14.707Z,97010.00
2024-04-18T18:47:41.854Z,97008.00
2024-04-18T18:50:09.189Z,97010.00
2024-04-18T18:52:36.308Z,97009.00
2024-04-18T18:55:03.293Z,97011.00
2024-04-18T18:57:30.448Z,97016.00
2024-04-18T18:59:57.735Z,97016.00
2024-04-18T19:02:25.225Z,97018.00
2024-04-18T19:04:52.494Z,97017.00
2024-04-18T19:07:19.742Z,97021.00
2024-04-18T19:09:46.983Z,97032.00
2024-04-18T19:12:14.219Z,97020.00
2024-04-18T19:14:41.484Z,97021.00
2024-04-18T19:17:08.718Z,97024.00
2024-04-18T19:19:35.861Z,97023.00
2024-04-18T19:22:04.918Z,97017.00
2024-04-18T19:24:31.889Z,97018.00
2024-04-18T19:27:01.757Z,97028.00
2024-04-18T19:29:39.844Z,97034.00
2024-04-18T19:32:18.583Z,97032.00
2024-04-18T19:34:46.074Z,97031.00
2024-04-18T19:37:13.194Z,97032.00
2024-04-18T19:39:40.995Z,97031.00
2024-04-18T19:42:08.990Z,97027.00
2024-04-18T19:44:36.256Z,97030.00
2024-04-18T19:47:04.396Z,97034.00
2024-04-18T19:49:36.182Z,97032.00
2024-04-18T19:52:07.423Z,97029.00
2024-04-18T19:54:36.113Z,97032.00
2024-04-18T19:57:04.112Z,97036.00
2024-04-18T19:59:31.131Z,97042.00
2024-04-18T20:01:58.658Z,97029.00
2024-04-18T20:04:26.157Z,97037.00
2024-04-18T20:06:54.161Z,97036.00
2024-04-18T20:09:21.655Z,97040.00
2024-04-18T20:11:48.645Z,97042.00
2024-04-18T20:14:15.572Z,97042.00
2024-04-18T20:16:45.694Z,97037.00
2024-04-18T20:19:16.462Z,97049.00
2024-04-18T20:21:44.584Z,97051.00
2024-04-18T20:24:13.560Z,97044.00
2024-04-18T20:26:40.698Z,97044.00
2024-04-18T20:29:10.477Z,97046.00
2024-04-18T20:31:37.622Z,97045.00
2024-04-18T20:34:04.611Z,97041.00
2024-04-18T20:36:31.868Z,97048.00
2024-04-18T20:38:58.981Z,97044.00
2024-04-18T20:41:26.175Z,97043.00
2024-04-18T20:43:53.170Z,97042.00
2024-04-18T20:46:27.662Z,97038.00
2024-04-18T20:48:55.299Z,97037.00
2024-04-18T20:51:23.333Z,97050.00
2024-04-18T20:53:50.708Z,97044.00
2024-04-18T20:56:17.721Z,97048.00
2024-04-18T20:58:44.661Z,97050.00
2024-04-18T21:01:11.875Z,97051.00
2024-04-18T21:03:39.009Z,97042.00
2024-04-18T21:06:06.131Z,97045.00
2024-04-18T21:08:33.977Z,97050.00
2024-04-18T21:11:00.997Z,97047.00
2024-04-18T21:13:27.972Z,97061.00
2024-04-18T21:16:01.457Z,97051.00
2024-04-18T21:18:29.052Z,97049.00
2024-04-18T21:20:56.818Z,97054.00
2024-04-18T21:23:23.989Z,97057.00
2024-04-18T21:25:51.091Z,97055.00
2024-04-18T21:28:18.028Z,97058.00
2024-04-18T21:30:45.097Z,97058.00
2024-04-18T21:33:12.199Z,97059.00
2024-04-18T21:35:39.198Z,97050.00
2024-04-18T21:38:06.099Z,97050.00
2024-04-18T21:40:33.684Z,97056.00
2024-04-18T21:43:04.010Z,97060.00
2024-04-18T21:45:32.772Z,97062.00
2024-04-18T21:48:00.177Z,97057.00
2024-04-18T21:50:27.230Z,97052.00
2024-04-18T21:52:54.169Z,97057.00
2024-04-18T21:55:21.176Z,97056.00
2024-04-18T21:57:48.150Z,97053.00
2024-04-18T22:00:15.358Z,97056.00
2024-04-18T22:02:42.348Z,97055.00
2024-04-18T22:05:09.295Z,97048.00
2024-04-18T22:07:36.205Z,97045.00
2024-04-18T22:10:03.259Z,97043.00
2024-04-18T22:12:31.454Z,97042.00
2024-04-18T22:14:58.507Z,97051.00
2024-04-18T22:17:25.437Z,97050.00
2024-04-18T22:19:52.336Z,97044.00
2024-04-18T22:22:19.238Z,97043.00
2024-04-18T22:24:46.224Z,97029.00
2024-04-18T22:27:13.223Z,97019.00
2024-04-18T22:29:40.189Z,97026.00
2024-04-18T22:32:07.571Z,97033.00
2024-04-18T22:34:37.324Z,97035.00
2024-04-18T22:37:05.062Z,97038.00
2024-04-18T22:39:32.319Z,97035.00
2024-04-18T22:41:59.303Z,97039.00
2024-04-18T22:44:26.188Z,97035.00
2024-04-18T22:46:53.154Z,97039.00
2024-04-18T22:49:20.156Z,97043.00
2024-04-18T22:51:47.592Z,97044.00
2024-04-18T22:54:14.645Z,97041.00
2024-04-18T22:56:41.567Z,97034.00
2024-04-18T22:59:08.658Z,97028.00
2024-04-18T23:01:35.633Z,97033.00
2024-04-18T23:04:02.801Z,97035.00
2024-04-18T23:06:31.511Z,97031.00
2024-04-18T23:08:58.454Z,97032.00
2024-04-18T23:11:25.425Z,97031.00
2024-04-18T23:13:52.397Z,97038.00
2024-04-18T23:16:19.315Z,97036.00
2024-04-18T23:18:46.454Z,97038.00
2024-04-18T23:21:13.555Z,97025.00
2024-04-18T23:23:40.459Z,97031.00
2024-04-18T23:26:07.390Z,97031.00
2024-04-18T23:28:34.335Z,97031.00
2024-04-18T23:31:01.306Z,97024.00
2024-04-18T23:33:28.831Z,97026.00
2024-04-18T23:35:55.978Z,97033.00
2024-04-18T23:38:22.892Z,97029.00
2024-04-18T23:40:50.486Z,97030.00
2024-04-18T23:43:17.596Z,97016.00
2024-04-18T23:45:44.751Z,97012.00
2024-04-18T23:48:13.178Z,97017.00
2024-04-18T23:50:40.369Z,97018.00
2024-04-18T23:53:07.303Z,97007.00
2024-04-18T23:55:34.226Z,97007.00
2024-04-18T23:58:01.218Z,97011.00
